createdAt,value
2022-11-30T08:30:17.976Z,16.25
2022-11-30T08:32:53.058Z,14.88
2022-11-30T08:48:40.219Z,16.85
2022-11-30T09:17:47.849Z,17.98
2022-11-30T09:20:14.696Z,17.50
2022-11-30T09:22:41.423Z,17.77
2022-11-30T09:46:40.401Z,16.52
2022-11-30T09:55:45.169Z,17.57
2022-11-30T09:58:23.975Z,18.92
2022-11-30T10:00:50.691Z,18.55
2022-11-30T10:03:24.203Z,18.48
2022-11-30T10:09:42.226Z,16.13
2022-11-30T10:23:11.382Z,17.73
2022-11-30T10:25:44.756Z,18.03
2022-11-30T10:28:49.697Z,15.63
2022-11-30T10:31:47.240Z,19.40
2022-11-30T10:34:26.375Z,20.17
2022-11-30T10:37:32.475Z,16.50
2022-11-30T11:02:51.034Z,16.42
2022-11-30T11:05:31.702Z,15.25
2022-11-30T11:15:26.949Z,17.58
2022-11-30T11:18:33.403Z,15.93
2022-11-30T11:40:39.562Z,14.98
2022-11-30T11:46:12.458Z,15.25
2022-11-30T11:52:13.533Z,15.80
2022-11-30T11:54:53.323Z,17.08
2022-11-30T11:57:27.536Z,17.93
2022-11-30T12:00:00.352Z,20.10
2022-11-30T12:06:19.185Z,16.08
2022-11-30T12:09:20.568Z,16.30
2022-11-30T12:14:42.103Z,16.80
2022-11-30T12:26:58.041Z,17.53
2022-11-30T12:29:34.832Z,16.83
2022-11-30T12:32:33.492Z,16.83
2022-11-30T13:07:58.128Z,13.77
2022-11-30T13:10:51.550Z,14.52
2022-11-30T13:13:32.074Z,14.90
2022-11-30T13:16:00.836Z,15.40
2022-11-30T13:18:33.680Z,15.90
2022-11-30T13:21:40.833Z,15.77
2022-11-30T13:24:49.987Z,15.45
2022-11-30T13:30:26.322Z,16.17
2022-11-30T13:33:33.924Z,18.08
2022-11-30T13:36:30.515Z,17.23
2022-11-30T13:39:30.043Z,16.77
2022-11-30T13:42:09.367Z,16.13
2022-11-30T13:48:37.018Z,18.75
2022-11-30T13:51:04.920Z,17.67
2022-11-30T13:53:39.321Z,16.13
2022-11-30T14:01:47.031Z,16.70
2022-11-30T14:04:19.619Z,19.73
2022-11-30T14:06:54.266Z,17.33
2022-11-30T14:09:58.736Z,16.13
2022-11-30T14:15:33.871Z,16.25
2022-11-30T14:18:39.547Z,20.20
2022-11-30T14:21:48.914Z,15.98
2022-11-30T14:24:31.164Z,14.77
2022-11-30T14:26:58.952Z,15.57
2022-11-30T14:29:31.462Z,20.38
2022-11-30T14:32:07.295Z,18.95
2022-11-30T14:35:17.567Z,15.48
2022-11-30T14:37:55.253Z,13.93
2022-11-30T14:43:24.709Z,16.10
2022-11-30T14:46:20.831Z,16.40
2022-11-30T14:49:22.729Z,15.63
2022-11-30T14:55:29.025Z,15.35
2022-11-30T15:01:35.643Z,18.25
2022-11-30T15:04:14.840Z,15.02
2022-11-30T15:06:44.690Z,17.00
2022-11-30T15:09:20.168Z,16.30
2022-11-30T15:11:49.978Z,17.42
2022-11-30T15:14:16.825Z,18.42
2022-11-30T15:16:49.981Z,17.10
2022-11-30T15:19:24.543Z,18.23
2022-11-30T15:25:23.420Z,17.15
2022-11-30T15:27:50.500Z,18.08
2022-11-30T15:30:17.547Z,16.02
2022-11-30T15:32:46.404Z,17.67
2022-11-30T15:35:34.175Z,18.92
2022-11-30T15:44:26.614Z,18.05
2022-11-30T15:47:42.817Z,19.70
2022-11-30T15:59:25.462Z,17.92
2022-11-30T16:02:34.358Z,15.50
2022-11-30T16:05:31.920Z,16.77
2022-11-30T16:08:04.885Z,17.17
2022-11-30T16:17:33.330Z,17.80
2022-11-30T16:20:13.327Z,15.98
2022-11-30T16:22:46.919Z,17.92
2022-11-30T16:25:22.709Z,17.55
2022-11-30T16:28:28.479Z,15.98
2022-11-30T16:31:10.386Z,16.83
2022-11-30T16:33:37.125Z,17.90
2022-11-30T17:54:31.306Z,21.48
2022-11-30T17:58:04.118Z,17.52
2022-11-30T18:00:42.513Z,20.83
2022-11-30T18:03:41.313Z,18.27
2022-11-30T18:06:08.339Z,20.15
2022-11-30T18:08:38.614Z,19.02
2022-11-30T18:11:09.557Z,19.00
2022-11-30T18:13:59.517Z,17.63
2022-11-30T19:16:55.678Z,19.20
2022-11-30T19:27:02.136Z,23.02
2022-11-30T20:29:57.332Z,25.45
2022-11-30T20:32:39.676Z,22.17
2022-11-30T20:35:10.011Z,21.27
2022-11-30T20:37:37.281Z,23.27
2022-11-30T20:40:10.126Z,21.23
2022-11-30T20:42:41.395Z,25.70
2022-11-30T20:45:12.464Z,21.47
2022-11-30T20:47:42.529Z,22.20
2022-11-30T20:57:32.399Z,22.92
2022-11-30T21:04:03.506Z,23.50
2022-11-30T21:06:30.690Z,21.75
2022-11-30T21:08:58.011Z,22.95
2022-11-30T21:11:25.380Z,22.23
2022-11-30T21:13:52.777Z,23.40
2022-11-30T21:16:27.740Z,25.85
2022-11-30T21:18:59.994Z,24.85
2022-11-30T21:21:35.004Z,24.90
2022-11-30T21:24:09.299Z,26.00
2022-11-30T21:26:39.036Z,22.80
2022-11-30T21:29:11.628Z,24.77
2022-11-30T21:31:38.716Z,25.40
2022-11-30T21:34:12.760Z,24.75
2022-11-30T21:36:39.560Z,24.27
2022-11-30T21:39:07.361Z,24.13
2022-11-30T21:41:36.667Z,27.13
2022-11-30T21:44:05.781Z,28.52
2022-11-30T21:46:36.014Z,26.75
2022-11-30T21:49:05.946Z,26.25
2022-11-30T21:51:40.344Z,29.63
2022-11-30T21:54:10.899Z,26.17
2022-11-30T21:56:39.689Z,26.50
2022-11-30T21:59:08.737Z,24.27
2022-11-30T22:01:42.769Z,26.58
2022-11-30T22:04:11.567Z,27.83
2022-11-30T22:06:40.820Z,24.70
2022-11-30T22:15:58.432Z,27.15
2022-11-30T22:21:17.622Z,35.35
